Time;durP1;ratioP1;P1;durP2;ratioP2;P2;SDS_P1;SDS_P2;PMS_P1;PMS_P2;Temp;Humidity;BMP_temperature;BMP_pressure;BME280_temperature;BME280_humidity;BME280_pressure;Samples;Min_cycle;Max_cycle;Signal;HPM_P1;HPM_P2
2024/01/16 00:00:34;;;;;;;3.13;1.60;;;16.70;51.50;;;;;;5052559;28;20179;-67
2024/01/16 00:03:00;;;;;;;2.30;1.30;;;16.70;51.50;;;;;;5052481;28;20625;-68
2024/01/16 00:05:25;;;;;;;4.78;1.83;;;16.70;51.40;;;;;;5069932;28;20216;-68
2024/01/16 00:07:51;;;;;;;2.70;1.45;;;16.60;51.40;;;;;;5057685;28;20340;-68
2024/01/16 00:10:17;;;;;;;3.63;1.70;;;16.60;51.40;;;;;;5050479;28;20183;-68
2024/01/16 00:12:42;;;;;;;1.90;1.45;;;16.60;51.40;;;;;;5051232;28;20215;-69
2024/01/16 00:15:08;;;;;;;1.75;1.50;;;16.60;51.50;;;;;;5051841;28;20175;-68
2024/01/16 00:17:34;;;;;;;1.95;1.48;;;16.60;51.30;;;;;;5050603;28;20236;-69
2024/01/16 00:20:00;;;;;;;2.22;1.48;;;16.50;51.20;;;;;;5051483;28;20175;-68
2024/01/16 00:22:29;;;;;;;2.08;1.40;;;16.50;51.30;;;;;;5052105;28;20195;-68
2024/01/16 00:24:54;;;;;;;2.13;1.30;;;16.50;51.30;;;;;;5051900;28;20262;-68
2024/01/16 00:27:20;;;;;;;3.95;1.83;;;16.50;51.30;;;;;;5052156;28;20316;-68
2024/01/16 00:29:45;;;;;;;2.47;1.25;;;16.50;51.50;;;;;;5052351;28;20632;-68
2024/01/16 00:32:15;;;;;;;3.78;1.75;;;16.50;51.40;;;;;;5051507;28;20199;-68
2024/01/16 00:34:44;;;;;;;3.90;1.50;;;16.40;51.40;;;;;;5052503;28;20183;-68
2024/01/16 00:37:10;;;;;;;2.05;1.45;;;16.40;51.50;;;;;;5051585;28;20580;-68
2024/01/16 00:39:35;;;;;;;1.73;1.40;;;16.40;51.40;;;;;;5051951;28;20179;-69
2024/01/16 00:42:02;;;;;;;1.83;1.17;;;16.40;51.40;;;;;;5052232;28;20175;-68
2024/01/16 00:44:28;;;;;;;2.55;1.10;;;16.40;51.50;;;;;;5051132;28;20637;-69
2024/01/16 00:46:53;;;;;;;3.20;1.20;;;16.40;51.40;;;;;;5052415;28;20178;-68
2024/01/16 00:49:19;;;;;;;1.92;1.30;;;16.40;51.40;;;;;;5051760;28;20171;-69
2024/01/16 00:51:45;;;;;;;2.03;1.50;;;16.30;51.50;;;;;;5051277;28;20230;-68
2024/01/16 00:54:10;;;;;;;2.10;1.88;;;16.30;51.50;;;;;;5052223;28;20638;-69
2024/01/16 00:56:36;;;;;;;2.38;1.40;;;16.30;51.50;;;;;;5051746;28;20258;-68
2024/01/16 00:59:02;;;;;;;2.90;1.00;;;16.30;51.40;;;;;;5051252;28;20182;-67
2024/01/16 01:01:28;;;;;;;2.85;1.60;;;16.30;51.40;;;;;;5051870;28;20190;-69
2024/01/16 01:03:53;;;;;;;2.95;1.33;;;16.30;51.40;;;;;;5052199;28;20261;-68
2024/01/16 01:06:19;;;;;;;3.03;1.70;;;16.30;51.40;;;;;;5051120;28;20229;-68
2024/01/16 01:08:44;;;;;;;1.80;1.27;;;16.30;52.10;;;;;;5052000;28;20177;-69
2024/01/16 01:11:11;;;;;;;2.78;1.40;;;16.20;51.50;;;;;;5052005;28;20171;-69
2024/01/16 01:13:36;;;;;;;2.13;1.33;;;16.20;51.40;;;;;;5050840;28;20207;-69
2024/01/16 01:16:02;;;;;;;1.98;1.30;;;16.20;51.30;;;;;;5052115;28;20692;-68
2024/01/16 01:18:27;;;;;;;2.35;1.38;;;16.20;51.20;;;;;;5051762;28;20217;-69
2024/01/16 01:20:53;;;;;;;3.53;1.30;;;16.20;51.30;;;;;;5051314;28;20506;-69
2024/01/16 01:23:18;;;;;;;2.53;1.33;;;16.20;51.30;;;;;;5051739;28;20167;-70
2024/01/16 01:25:44;;;;;;;1.92;1.30;;;16.20;51.30;;;;;;5052018;28;20226;-68
2024/01/16 01:28:11;;;;;;;2.25;1.30;;;16.20;51.30;;;;;;5051051;28;20171;-67
2024/01/16 01:30:36;;;;;;;2.15;1.30;;;16.10;51.30;;;;;;5055715;28;20198;-68
2024/01/16 01:33:02;;;;;;;1.48;1.10;;;16.20;51.30;;;;;;5055589;28;20223;-68
2024/01/16 01:35:28;;;;;;;2.40;1.13;;;16.10;51.30;;;;;;5054785;28;20167;-69
2024/01/16 01:37:53;;;;;;;1.38;0.98;;;16.10;51.30;;;;;;5055704;28;20273;-68
2024/01/16 01:40:18;;;;;;;1.90;1.38;;;16.10;51.50;;;;;;5054678;28;20312;-68
2024/01/16 01:42:44;;;;;;;2.85;1.30;;;16.10;51.40;;;;;;5055539;28;20254;-69
2024/01/16 01:45:10;;;;;;;2.05;1.20;;;16.10;51.30;;;;;;5055450;28;20254;-68
2024/01/16 01:47:39;;;;;;;1.63;1.10;;;16.10;51.30;;;;;;5054676;28;20181;-68
2024/01/16 01:50:06;;;;;;;2.83;1.50;;;16.00;51.20;;;;;;5055470;28;20179;-68
2024/01/16 01:52:32;;;;;;;2.65;1.42;;;16.00;51.30;;;;;;5036986;28;20272;-69
2024/01/16 01:54:57;;;;;;;1.88;1.25;;;16.00;51.30;;;;;;5054691;28;20195;-68
2024/01/16 01:57:23;;;;;;;2.72;1.25;;;16.00;51.30;;;;;;5053681;28;20179;-68
2024/01/16 01:59:48;;;;;;;3.55;1.58;;;16.00;51.30;;;;;;5054272;28;20178;-68
2024/01/16 02:02:14;;;;;;;2.72;1.20;;;16.00;51.40;;;;;;5054289;28;20578;-68
2024/01/16 02:04:40;;;;;;;1.58;1.27;;;16.00;51.40;;;;;;5053787;28;20176;-68
2024/01/16 02:07:05;;;;;;;1.95;1.05;;;16.00;51.40;;;;;;5055044;28;20658;-69
2024/01/16 02:09:31;;;;;;;1.33;1.15;;;15.90;51.40;;;;;;5052789;28;20199;-69
2024/01/16 02:11:57;;;;;;;3.03;1.35;;;15.90;51.30;;;;;;5054851;28;20214;-69
2024/01/16 02:14:22;;;;;;;1.30;1.10;;;15.90;51.40;;;;;;5054853;28;20229;-68
2024/01/16 02:16:48;;;;;;;1.98;1.02;;;15.90;51.40;;;;;;5054401;28;20171;-68
2024/01/16 02:19:14;;;;;;;2.65;0.98;;;15.90;51.50;;;;;;5054698;28;20182;-68
2024/01/16 02:21:47;;;;;;;2.50;1.30;;;15.90;51.30;;;;;;5054783;28;20178;-68
2024/01/16 02:24:12;;;;;;;0.90;0.90;;;15.90;51.50;;;;;;5052956;28;20171;-68
2024/01/16 02:26:38;;;;;;;1.67;1.08;;;15.90;51.40;;;;;;5053168;28;20175;-68
2024/01/16 02:29:04;;;;;;;1.58;1.20;;;15.90;51.40;;;;;;5037017;28;20171;-67
2024/01/16 02:31:30;;;;;;;2.60;1.30;;;15.90;51.40;;;;;;5053724;28;20210;-68
2024/01/16 02:33:56;;;;;;;1.70;1.00;;;15.90;51.40;;;;;;5054700;28;20263;-67
2024/01/16 02:36:21;;;;;;;1.83;1.15;;;15.80;51.50;;;;;;5054327;28;20254;-68
2024/01/16 02:38:47;;;;;;;1.83;1.00;;;15.80;51.40;;;;;;5053856;28;20569;-69
2024/01/16 02:41:15;;;;;;;2.83;1.20;;;15.80;51.50;;;;;;5053823;28;20668;-69
2024/01/16 02:43:41;;;;;;;1.20;1.00;;;15.80;51.50;;;;;;5053850;28;20255;-69
2024/01/16 02:46:08;;;;;;;2.08;1.20;;;15.80;51.50;;;;;;5054505;28;20598;-69
2024/01/16 02:48:34;;;;;;;1.42;1.17;;;15.80;51.50;;;;;;5053884;28;20284;-69
2024/01/16 02:51:00;;;;;;;2.03;1.25;;;15.70;51.50;;;;;;5053399;28;20249;-68
2024/01/16 02:53:26;;;;;;;1.20;1.10;;;15.70;51.60;;;;;;5053769;28;20214;-68
2024/01/16 02:55:52;;;;;;;2.53;1.00;;;15.80;51.70;;;;;;5054068;28;20172;-69
2024/01/16 02:58:21;;;;;;;2.03;1.00;;;15.70;51.50;;;;;;5053170;28;20634;-69
2024/01/16 03:00:47;;;;;;;1.60;0.98;;;16.10;51.80;;;;;;5054181;28;20167;-68
2024/01/16 03:03:12;;;;;;;2.67;1.55;;;15.70;51.60;;;;;;5054041;28;20173;-68
2024/01/16 03:05:38;;;;;;;2.03;1.30;;;15.70;51.60;;;;;;5053191;28;20171;-68
2024/01/16 03:08:05;;;;;;;1.52;1.00;;;15.70;51.60;;;;;;5053962;28;20258;-68
2024/01/16 03:10:30;;;;;;;1.30;1.15;;;15.60;51.50;;;;;;5053506;28;20179;-69
2024/01/16 03:12:57;;;;;;;1.17;0.85;;;15.60;51.50;;;;;;5053261;28;20211;-68
2024/01/16 03:15:22;;;;;;;1.55;1.00;;;15.60;51.50;;;;;;5053654;28;20228;-68
2024/01/16 03:17:48;;;;;;;1.58;1.10;;;15.60;51.50;;;;;;5053870;28;20257;-68
2024/01/16 03:20:14;;;;;;;1.77;1.67;;;15.60;51.50;;;;;;5052911;28;20179;-68
2024/01/16 03:22:40;;;;;;;1.70;1.15;;;15.60;51.60;;;;;;5053594;28;20182;-68
2024/01/16 03:25:07;;;;;;;3.97;1.35;;;15.60;51.60;;;;;;5053544;28;20548;-68
2024/01/16 03:27:32;;;;;;;3.13;1.58;;;15.60;51.60;;;;;;5052484;28;20543;-68
2024/01/16 03:29:58;;;;;;;2.35;1.35;;;15.60;51.70;;;;;;5053519;28;20175;-68
2024/01/16 03:32:23;;;;;;;2.30;1.15;;;15.60;51.70;;;;;;5053197;28;20238;-68
2024/01/16 03:34:49;;;;;;;2.60;1.25;;;15.60;51.80;;;;;;5052830;28;20183;-68
2024/01/16 03:37:14;;;;;;;2.45;1.15;;;15.60;51.90;;;;;;5053207;28;20274;-69
2024/01/16 03:39:40;;;;;;;1.95;1.02;;;15.60;51.80;;;;;;5053123;28;20175;-68
2024/01/16 03:42:05;;;;;;;1.23;1.08;;;15.60;51.70;;;;;;5052809;28;20187;-69
2024/01/16 03:44:31;;;;;;;2.47;1.20;;;15.60;51.80;;;;;;5053033;28;20539;-68
2024/01/16 03:46:57;;;;;;;1.73;1.10;;;15.60;51.90;;;;;;5052702;28;20537;-68
2024/01/16 03:49:22;;;;;;;2.08;1.00;;;15.50;51.70;;;;;;5052968;28;20638;-69
2024/01/16 03:51:48;;;;;;;1.33;0.82;;;15.50;51.70;;;;;;5052322;28;20218;-68
2024/01/16 03:54:13;;;;;;;1.65;1.10;;;15.50;51.80;;;;;;5051952;28;20171;-69
2024/01/16 03:56:39;;;;;;;1.88;1.10;;;15.50;51.90;;;;;;5052868;28;20175;-69
2024/01/16 03:59:05;;;;;;;2.15;1.50;;;15.50;51.80;;;;;;5053103;28;20178;-68
2024/01/16 04:01:32;;;;;;;1.42;1.20;;;15.50;51.80;;;;;;5052092;28;20171;-68
2024/01/16 04:03:57;;;;;;;0.98;0.88;;;15.50;51.80;;;;;;5052968;28;20182;-68
2024/01/16 04:06:23;;;;;;;2.33;1.10;;;15.50;51.70;;;;;;5052462;28;20229;-69
2024/01/16 04:08:48;;;;;;;1.38;0.90;;;15.50;51.90;;;;;;5051801;28;20175;-69
2024/01/16 04:11:14;;;;;;;1.42;1.10;;;15.50;51.90;;;;;;5052748;28;20168;-69
2024/01/16 04:13:40;;;;;;;2.65;1.33;;;15.40;51.80;;;;;;5052490;28;20210;-69
2024/01/16 04:16:06;;;;;;;3.22;1.33;;;15.40;51.80;;;;;;5052132;28;20190;-68
2024/01/16 04:18:39;;;;;;;1.05;0.85;;;15.40;51.80;;;;;;5052359;28;20179;-68
2024/01/16 04:21:05;;;;;;;1.83;1.05;;;15.40;51.80;;;;;;5052502;28;20183;-68
2024/01/16 04:23:30;;;;;;;2.30;1.30;;;15.40;51.80;;;;;;5051783;28;20185;-68
2024/01/16 04:25:56;;;;;;;1.67;1.10;;;15.40;51.80;;;;;;5052693;28;20171;-68
2024/01/16 04:28:21;;;;;;;2.40;0.90;;;15.40;51.90;;;;;;5052241;28;20171;-67
2024/01/16 04:30:47;;;;;;;1.75;1.02;;;15.40;51.90;;;;;;5051828;28;20205;-67
2024/01/16 04:33:12;;;;;;;2.08;1.27;;;15.40;51.90;;;;;;5052289;28;20572;-68
2024/01/16 04:35:38;;;;;;;1.02;0.68;;;15.40;51.90;;;;;;5052046;28;20163;-68
2024/01/16 04:38:03;;;;;;;1.45;1.00;;;15.40;52.00;;;;;;5051593;28;20548;-69
2024/01/16 04:40:29;;;;;;;1.13;1.00;;;15.30;51.90;;;;;;5051873;28;20175;-69
2024/01/16 04:42:54;;;;;;;2.03;1.02;;;15.30;51.90;;;;;;5052377;28;20179;-69
2024/01/16 04:45:20;;;;;;;1.48;0.90;;;15.30;52.00;;;;;;5051155;28;20175;-69
2024/01/16 04:47:45;;;;;;;1.40;1.05;;;15.30;52.00;;;;;;5052121;28;20237;-68
2024/01/16 04:50:11;;;;;;;1.23;0.90;;;15.30;52.00;;;;;;5051570;28;20171;-69
2024/01/16 04:52:37;;;;;;;0.93;0.75;;;15.30;52.00;;;;;;5051580;28;20279;-68
2024/01/16 04:55:03;;;;;;;2.05;1.45;;;15.30;52.00;;;;;;5052161;28;20252;-69
2024/01/16 04:57:28;;;;;;;1.20;1.00;;;15.30;51.90;;;;;;5051027;28;20178;-69
2024/01/16 04:59:54;;;;;;;2.42;1.23;;;15.30;52.00;;;;;;5052144;28;20182;-68
2024/01/16 05:02:19;;;;;;;1.17;0.88;;;15.30;52.10;;;;;;5051750;28;20174;-68
2024/01/16 05:04:49;;;;;;;1.00;0.77;;;15.30;52.00;;;;;;5051105;28;20182;-68
2024/01/16 05:07:14;;;;;;;2.00;0.90;;;15.20;51.90;;;;;;5051722;28;20595;-69
2024/01/16 05:09:40;;;;;;;1.00;0.90;;;15.20;52.00;;;;;;5051948;28;20261;-68
2024/01/16 05:12:06;;;;;;;1.52;1.00;;;15.20;52.00;;;;;;5051326;28;20209;-68
2024/01/16 05:14:31;;;;;;;1.20;0.82;;;15.20;51.90;;;;;;5051726;28;20633;-68
2024/01/16 05:16:57;;;;;;;0.80;0.73;;;15.20;52.00;;;;;;5051880;28;20254;-68
2024/01/16 05:19:22;;;;;;;1.23;0.80;;;15.20;52.10;;;;;;5050815;28;20237;-69
2024/01/16 05:21:48;;;;;;;2.20;1.00;;;15.20;51.90;;;;;;5051700;28;20170;-68
2024/01/16 05:24:13;;;;;;;1.00;0.77;;;15.20;52.00;;;;;;5051942;28;20175;-68
2024/01/16 05:26:39;;;;;;;0.90;0.90;;;15.20;52.00;;;;;;5051224;28;20171;-67
2024/01/16 05:29:04;;;;;;;1.73;0.75;;;15.20;52.00;;;;;;5051802;28;20175;-68
2024/01/16 05:31:30;;;;;;;1.48;0.90;;;15.10;52.00;;;;;;5051305;28;20630;-69
2024/01/16 05:33:56;;;;;;;1.70;1.15;;;15.20;52.00;;;;;;5051106;28;20183;-68
2024/01/16 05:36:21;;;;;;;2.05;1.02;;;15.20;52.00;;;;;;5051382;28;20184;-68
2024/01/16 05:38:47;;;;;;;1.35;1.05;;;15.10;52.00;;;;;;5051861;28;20176;-68
2024/01/16 05:41:13;;;;;;;0.90;0.88;;;15.10;52.00;;;;;;5051185;28;20175;-69
2024/01/16 05:43:38;;;;;;;1.23;0.98;;;15.10;52.00;;;;;;5051524;28;20207;-68
2024/01/16 05:46:05;;;;;;;1.63;0.88;;;15.10;52.10;;;;;;5051723;28;20210;-68
2024/01/16 05:48:30;;;;;;;1.42;0.80;;;15.10;52.10;;;;;;5050500;28;20214;-68
2024/01/16 05:50:56;;;;;;;1.75;1.00;;;15.10;52.10;;;;;;5051190;28;20330;-68
2024/01/16 05:53:21;;;;;;;1.85;0.98;;;15.10;52.20;;;;;;5051287;28;20213;-69
2024/01/16 05:55:47;;;;;;;1.45;0.93;;;15.10;52.20;;;;;;5050813;28;20179;-69
2024/01/16 05:58:12;;;;;;;1.60;1.10;;;15.10;52.10;;;;;;5051514;28;20179;-68
2024/01/16 06:00:39;;;;;;;2.17;1.00;;;15.10;52.20;;;;;;5050317;28;20216;-68
2024/01/16 06:03:05;;;;;;;1.33;0.82;;;15.00;52.10;;;;;;5051451;28;20175;-68
2024/01/16 06:05:30;;;;;;;2.47;0.93;;;15.00;52.20;;;;;;5050817;28;20520;-68
2024/01/16 06:07:56;;;;;;;0.80;0.70;;;15.10;52.20;;;;;;5050849;28;20174;-68
2024/01/16 06:10:22;;;;;;;1.40;0.90;;;15.00;52.10;;;;;;5051168;28;20327;-68
2024/01/16 06:12:47;;;;;;;1.20;0.98;;;15.00;52.20;;;;;;5051222;28;20214;-69
2024/01/16 06:15:13;;;;;;;1.77;0.90;;;15.00;52.20;;;;;;5050693;28;20245;-68
2024/01/16 06:17:38;;;;;;;2.75;0.93;;;15.00;52.20;;;;;;5054665;28;20174;-68
2024/01/16 06:20:06;;;;;;;1.27;0.70;;;15.00;52.20;;;;;;5054835;28;20650;-68
2024/01/16 06:22:31;;;;;;;1.80;1.10;;;15.00;52.10;;;;;;5053731;28;20282;-68
2024/01/16 06:24:57;;;;;;;2.03;0.90;;;15.00;52.20;;;;;;5054946;28;20317;-68
2024/01/16 06:27:22;;;;;;;2.85;0.93;;;15.00;52.30;;;;;;5054504;28;20273;-67
2024/01/16 06:29:48;;;;;;;1.15;0.77;;;15.00;52.30;;;;;;5054070;28;20266;-67
2024/01/16 06:32:14;;;;;;;1.85;1.05;;;15.00;52.20;;;;;;5054357;28;20241;-67
2024/01/16 06:34:40;;;;;;;1.20;0.70;;;14.90;52.20;;;;;;5053834;28;20542;-68
2024/01/16 06:37:05;;;;;;;0.98;0.82;;;14.90;52.20;;;;;;5054070;28;20167;-68
2024/01/16 06:39:31;;;;;;;1.45;1.08;;;14.90;52.30;;;;;;5054118;28;20183;-68
2024/01/16 06:41:56;;;;;;;0.82;0.77;;;14.90;52.30;;;;;;5054592;28;20179;-69
2024/01/16 06:44:22;;;;;;;1.15;0.80;;;14.90;52.30;;;;;;5053429;28;20583;-69
2024/01/16 06:46:47;;;;;;;1.42;0.75;;;14.90;52.30;;;;;;5054382;28;20590;-68
2024/01/16 06:49:16;;;;;;;1.42;0.70;;;14.90;52.30;;;;;;5054313;28;20530;-68
2024/01/16 06:51:41;;;;;;;2.33;0.85;;;14.90;52.30;;;;;;5053436;28;20227;-68
2024/01/16 06:54:07;;;;;;;0.77;0.70;;;15.00;52.20;;;;;;5054460;28;20711;-68
2024/01/16 06:56:32;;;;;;;1.83;0.88;;;15.00;52.10;;;;;;5054051;28;20531;-68
2024/01/16 06:58:58;;;;;;;1.00;0.80;;;15.10;52.10;;;;;;5053484;28;20179;-68
2024/01/16 07:01:23;;;;;;;2.00;1.10;;;15.20;52.00;;;;;;5053853;28;20181;-68
2024/01/16 07:03:49;;;;;;;1.55;0.80;;;15.40;52.00;;;;;;5053144;28;20663;-68
2024/01/16 07:06:15;;;;;;;1.38;0.82;;;15.50;51.90;;;;;;5053937;28;20177;-68
2024/01/16 07:08:40;;;;;;;1.23;0.85;;;15.60;51.70;;;;;;5053941;28;20168;-69
2024/01/16 07:11:08;;;;;;;0.70;0.60;;;15.80;51.40;;;;;;5053273;28;20234;-68
2024/01/16 07:13:34;;;;;;;2.03;0.82;;;16.00;51.20;;;;;;5053491;28;20301;-68
2024/01/16 07:16:00;;;;;;;1.98;0.77;;;16.10;50.90;;;;;;5053780;28;20167;-68
2024/01/16 07:18:27;;;;;;;1.27;0.70;;;16.20;50.80;;;;;;5052666;28;20248;-68
2024/01/16 07:20:52;;;;;;;1.10;0.85;;;16.30;50.60;;;;;;5053922;28;20202;-68
2024/01/16 07:23:18;;;;;;;1.20;0.80;;;16.40;50.60;;;;;;5053585;28;20213;-67
2024/01/16 07:25:43;;;;;;;1.48;0.98;;;16.40;50.40;;;;;;5053001;28;20262;-68
2024/01/16 07:28:09;;;;;;;1.70;1.05;;;16.40;50.40;;;;;;5053526;28;20697;-67
2024/01/16 07:30:34;;;;;;;1.95;1.08;;;16.40;50.40;;;;;;5053085;28;20728;-67
2024/01/16 07:33:00;;;;;;;1.98;0.90;;;16.40;50.50;;;;;;5052607;28;20285;-67
2024/01/16 07:35:26;;;;;;;1.45;0.77;;;16.40;50.50;;;;;;5053122;28;20626;-68
2024/01/16 07:37:51;;;;;;;1.30;0.70;;;16.40;50.50;;;;;;5053232;28;20245;-68
2024/01/16 07:40:17;;;;;;;1.40;0.70;;;16.40;50.60;;;;;;5052273;28;20175;-68
2024/01/16 07:42:42;;;;;;;1.33;0.88;;;16.40;50.60;;;;;;5053314;28;20186;-68
2024/01/16 07:45:08;;;;;;;1.52;0.95;;;16.40;50.60;;;;;;5053225;28;20717;-68
2024/01/16 07:47:35;;;;;;;1.63;0.73;;;16.40;50.60;;;;;;5052260;28;20641;-68
2024/01/16 07:50:01;;;;;;;2.25;0.80;;;16.40;50.60;;;;;;5053264;28;20317;-68
2024/01/16 07:52:27;;;;;;;2.30;0.82;;;16.50;50.60;;;;;;5052641;28;20227;-67
2024/01/16 07:54:53;;;;;;;1.88;0.77;;;16.50;51.20;;;;;;5052510;28;20250;-68
2024/01/16 07:57:18;;;;;;;2.95;0.75;;;16.50;50.50;;;;;;5052788;28;20649;-68
2024/01/16 07:59:44;;;;;;;1.38;0.90;;;16.50;50.60;;;;;;5052901;28;20175;-67
2024/01/16 08:02:09;;;;;;;2.55;0.68;;;16.60;50.70;;;;;;5052135;28;20206;-71
2024/01/16 08:04:35;;;;;;;3.90;1.20;;;16.60;50.80;;;;;;5052697;28;20220;-72
2024/01/16 08:07:01;;;;;;;5.05;1.30;;;16.60;50.80;;;;;;5052744;28;20533;-69
2024/01/16 08:09:27;;;;;;;4.18;0.95;;;16.70;50.90;;;;;;5053612;28;20183;-68
2024/01/16 08:11:52;;;;;;;3.78;1.10;;;16.60;50.90;;;;;;5059403;28;20180;-68
2024/01/16 08:14:18;;;;;;;3.05;1.13;;;16.70;51.00;;;;;;5066919;28;20187;-68
2024/01/16 08:16:43;;;;;;;1.75;0.93;;;16.70;51.00;;;;;;5060984;28;20187;-69
2024/01/16 08:19:09;;;;;;;1.17;0.85;;;16.70;51.00;;;;;;5052591;28;20214;-68
2024/01/16 08:21:35;;;;;;;3.30;0.95;;;16.70;51.00;;;;;;5051720;28;20340;-68
2024/01/16 08:24:00;;;;;;;2.70;1.27;;;16.80;51.00;;;;;;5052546;28;20181;-68
2024/01/16 08:26:26;;;;;;;3.08;0.98;;;16.80;51.00;;;;;;5052191;28;20175;-68
2024/01/16 08:28:51;;;;;;;3.42;1.15;;;16.80;51.00;;;;;;5051708;28;20179;-68
2024/01/16 08:31:18;;;;;;;1.42;0.88;;;16.80;51.00;;;;;;5052057;28;20656;-69
2024/01/16 08:33:44;;;;;;;2.20;1.33;;;16.80;51.00;;;;;;5052336;28;20696;-69
2024/01/16 08:36:09;;;;;;;2.00;1.00;;;16.80;51.10;;;;;;5051807;28;20195;-69
2024/01/16 08:38:35;;;;;;;4.65;1.15;;;16.80;51.00;;;;;;5051692;28;20666;-69
2024/01/16 08:41:00;;;;;;;1.77;1.08;;;16.80;51.10;;;;;;5052317;28;20903;-69
2024/01/16 08:43:26;;;;;;;2.22;1.15;;;16.70;51.10;;;;;;5051343;28;20265;-69
2024/01/16 08:45:51;;;;;;;2.20;1.35;;;16.80;51.20;;;;;;5052243;28;20548;-69
2024/01/16 08:48:17;;;;;;;2.47;1.17;;;16.80;51.10;;;;;;5051840;28;20194;-70
2024/01/16 08:50:43;;;;;;;3.28;1.42;;;16.80;51.10;;;;;;5051658;28;20262;-69
2024/01/16 08:53:08;;;;;;;2.30;1.33;;;16.80;51.10;;;;;;5052301;28;20211;-69
2024/01/16 08:55:34;;;;;;;2.47;1.05;;;16.80;51.10;;;;;;5051939;28;20171;-70
2024/01/16 08:57:59;;;;;;;2.83;0.90;;;16.90;51.10;;;;;;5051389;28;20179;-70
2024/01/16 09:00:25;;;;;;;2.63;1.00;;;16.80;51.00;;;;;;5051684;28;20514;-69
2024/01/16 09:02:51;;;;;;;2.72;1.00;;;16.80;51.00;;;;;;5052188;28;20610;-68
2024/01/16 09:05:16;;;;;;;4.20;1.70;;;16.80;51.10;;;;;;5051233;28;20175;-69
2024/01/16 09:07:42;;;;;;;1.08;0.70;;;16.80;51.10;;;;;;5052253;28;20185;-70
2024/01/16 09:10:08;;;;;;;1.52;1.23;;;16.80;51.00;;;;;;5052093;28;20171;-70
2024/01/16 09:12:33;;;;;;;2.13;1.10;;;16.80;51.10;;;;;;5050915;28;20207;-69
2024/01/16 09:14:59;;;;;;;2.38;1.17;;;16.80;51.10;;;;;;5051809;28;20642;-69
2024/01/16 09:17:26;;;;;;;3.10;1.38;;;16.80;51.10;;;;;;5050983;28;20651;-69
2024/01/16 09:19:51;;;;;;;1.90;1.05;;;16.80;51.20;;;;;;5051865;28;20594;-69
2024/01/16 09:22:17;;;;;;;2.63;1.23;;;16.80;51.20;;;;;;5051613;28;20261;-69
2024/01/16 09:24:43;;;;;;;2.55;1.17;;;16.80;51.10;;;;;;5051142;28;21017;-68
2024/01/16 09:27:09;;;;;;;2.20;1.30;;;16.80;51.10;;;;;;5051791;28;20179;-69
2024/01/16 09:29:35;;;;;;;2.78;1.00;;;16.80;51.10;;;;;;5051460;28;20240;-69
2024/01/16 09:32:01;;;;;;;3.38;1.50;;;16.80;51.10;;;;;;5051145;28;20645;-70
2024/01/16 09:34:26;;;;;;;3.95;1.58;;;16.90;51.10;;;;;;5051600;28;20544;-70
2024/01/16 09:36:52;;;;;;;1.85;1.10;;;16.80;51.10;;;;;;5051843;28;20202;-69
2024/01/16 09:39:18;;;;;;;2.10;1.33;;;16.80;51.10;;;;;;5050640;28;20637;-69
2024/01/16 09:41:44;;;;;;;1.63;1.00;;;16.80;51.10;;;;;;5051645;28;20175;-69
2024/01/16 09:44:10;;;;;;;1.67;1.20;;;16.80;51.10;;;;;;5051584;28;20171;-69
2024/01/16 09:46:37;;;;;;;3.00;1.00;;;16.80;51.00;;;;;;5050751;28;20179;-69
2024/01/16 09:49:03;;;;;;;1.83;1.17;;;16.80;51.10;;;;;;5051856;28;20283;-69
2024/01/16 09:51:29;;;;;;;1.48;1.08;;;16.90;51.00;;;;;;5051867;28;20250;-70
2024/01/16 09:53:54;;;;;;;2.30;1.20;;;16.90;51.10;;;;;;5054583;28;20226;-69
2024/01/16 09:56:26;;;;;;;3.47;1.55;;;16.90;51.00;;;;;;5055072;28;20585;-69
2024/01/16 09:58:56;;;;;;;3.22;1.05;;;16.90;51.00;;;;;;5055243;28;20179;-68
2024/01/16 10:01:22;;;;;;;3.50;1.40;;;16.80;50.90;;;;;;5054402;28;20206;-68
2024/01/16 10:03:47;;;;;;;2.33;1.42;;;16.80;50.70;;;;;;5054040;28;20191;-68
2024/01/16 10:06:13;;;;;;;2.75;1.30;;;16.80;50.60;;;;;;5055173;28;20183;-67
2024/01/16 10:08:38;;;;;;;3.17;1.35;;;16.70;50.60;;;;;;5052832;28;20626;-70
2024/01/16 10:11:04;;;;;;;3.17;1.65;;;16.70;50.70;;;;;;5053607;28;20205;-70
2024/01/16 10:13:30;;;;;;;5.45;1.35;;;16.70;50.80;;;;;;5054634;28;20302;-69
2024/01/16 10:15:55;;;;;;;2.72;1.30;;;16.70;50.90;;;;;;5053089;28;20171;-68
2024/01/16 10:18:25;;;;;;;2.55;1.23;;;16.70;50.90;;;;;;5054425;28;20273;-68
2024/01/16 10:20:53;;;;;;;3.38;1.40;;;16.70;51.00;;;;;;5053950;28;20173;-68
2024/01/16 10:23:28;;;;;;;2.65;1.20;;;16.70;51.10;;;;;;5053200;28;20213;-68
2024/01/16 10:26:07;;;;;;;3.38;1.17;;;16.70;51.10;;;;;;5054637;28;20181;-68
2024/01/16 10:28:36;;;;;;;3.35;1.40;;;16.70;51.20;;;;;;5053823;28;20203;-69
2024/01/16 10:31:03;;;;;;;5.10;1.58;;;16.60;51.10;;;;;;5054545;28;20179;-70
2024/01/16 10:33:28;;;;;;;4.80;1.65;;;16.60;51.20;;;;;;5054138;28;20218;-69
2024/01/16 10:36:10;;;;;;;2.03;1.20;;;16.60;51.30;;;;;;5053789;28;20630;-70
2024/01/16 10:38:39;;;;;;;3.67;1.20;;;16.60;51.50;;;;;;5054056;28;20649;-70
2024/01/16 10:41:06;;;;;;;2.70;1.35;;;16.60;51.40;;;;;;5054151;28;20535;-70
2024/01/16 10:43:31;;;;;;;3.08;1.40;;;16.60;51.40;;;;;;5052671;28;20185;-71
2024/01/16 10:46:11;;;;;;;1.83;1.20;;;16.60;51.40;;;;;;5054415;28;20611;-70
2024/01/16 10:48:37;;;;;;;3.15;1.27;;;16.70;51.40;;;;;;5053990;28;20198;-69
2024/01/16 10:51:03;;;;;;;4.25;1.40;;;16.70;51.40;;;;;;5053665;28;20666;-69
2024/01/16 10:53:32;;;;;;;2.58;1.48;;;16.60;51.50;;;;;;5052720;28;20225;-70
2024/01/16 10:55:57;;;;;;;3.55;1.10;;;16.60;51.50;;;;;;5052445;28;20187;-71
2024/01/16 10:58:23;;;;;;;3.00;1.27;;;16.60;51.60;;;;;;5053642;28;20196;-68
2024/01/16 11:00:51;;;;;;;2.17;1.20;;;16.60;51.80;;;;;;5053794;28;20208;-67
2024/01/16 11:03:19;;;;;;;2.17;1.30;;;16.60;51.50;;;;;;5051157;28;20549;-68
2024/01/16 11:05:45;;;;;;;2.65;1.30;;;16.60;51.70;;;;;;5052912;28;20188;-71
2024/01/16 11:08:11;;;;;;;4.25;1.50;;;16.60;51.60;;;;;;5052674;28;20171;-68
2024/01/16 11:10:37;;;;;;;2.38;1.40;;;16.50;52.20;;;;;;5051781;28;20168;-67
2024/01/16 11:13:03;;;;;;;3.50;1.15;;;16.50;51.60;;;;;;5052592;28;20222;-68
2024/01/16 11:15:29;;;;;;;3.15;1.45;;;16.60;51.60;;;;;;5052182;28;20510;-69
2024/01/16 11:18:01;;;;;;;4.53;1.23;;;16.70;51.50;;;;;;5052955;28;20183;-69
2024/01/16 11:20:27;;;;;;;3.75;1.27;;;16.70;51.30;;;;;;5053504;28;20167;-69
2024/01/16 11:22:59;;;;;;;2.70;1.33;;;16.70;51.40;;;;;;5053624;28;20183;-69
2024/01/16 11:25:30;;;;;;;3.13;1.23;;;16.70;51.40;;;;;;5052739;28;20312;-69
2024/01/16 11:27:56;;;;;;;3.88;1.42;;;16.70;51.40;;;;;;5052218;28;20182;-69
2024/01/16 11:30:31;;;;;;;2.65;1.17;;;16.70;51.50;;;;;;5051677;28;20167;-69
2024/01/16 11:32:57;;;;;;;2.60;1.33;;;16.70;51.60;;;;;;5052798;28;20210;-69
2024/01/16 11:35:39;;;;;;;4.75;1.30;;;16.60;51.60;;;;;;5053016;28;20186;-68
2024/01/16 11:38:18;;;;;;;2.72;1.38;;;16.60;51.60;;;;;;5052836;28;20676;-66
2024/01/16 11:40:44;;;;;;;2.60;1.50;;;16.60;50.90;;;;;;5053267;28;20174;-66
2024/01/16 11:43:31;;;;;;;2.75;1.25;;;16.60;50.70;;;;;;5052741;28;20193;-65
2024/01/16 11:45:58;;;;;;;6.13;1.52;;;16.60;51.10;;;;;;5052719;28;20224;-68
2024/01/16 11:48:24;;;;;;;5.93;1.58;;;16.50;51.10;;;;;;5052971;28;20186;-68
2024/01/16 11:50:49;;;;;;;2.20;1.13;;;16.60;51.30;;;;;;5053030;28;20219;-68
2024/01/16 11:53:30;;;;;;;2.22;1.38;;;16.60;51.30;;;;;;5051986;28;20221;-68
2024/01/16 11:55:59;;;;;;;3.92;1.58;;;16.60;51.20;;;;;;5052853;28;20190;-68
2024/01/16 11:59:06;;;;;;;3.05;1.55;;;16.60;51.30;;;;;;5052679;28;20179;-68
2024/01/16 12:01:31;;;;;;;1.85;1.23;;;16.60;51.30;;;;;;5051599;28;20225;-68
2024/01/16 12:04:07;;;;;;;3.15;1.30;;;16.60;51.10;;;;;;5051619;28;20689;-68
2024/01/16 12:06:34;;;;;;;5.25;1.48;;;16.70;51.20;;;;;;5052101;28;20174;-69
2024/01/16 12:09:17;;;;;;;2.47;1.25;;;16.70;51.20;;;;;;5052753;28;20175;-69
2024/01/16 12:11:45;;;;;;;4.00;1.52;;;16.70;51.20;;;;;;5052852;28;20182;-68
2024/01/16 12:14:11;;;;;;;2.10;1.27;;;16.70;51.20;;;;;;5051092;28;20249;-68
2024/01/16 12:16:37;;;;;;;2.13;1.20;;;16.70;51.20;;;;;;5051093;28;20178;-68
2024/01/16 12:19:07;;;;;;;1.67;1.00;;;16.70;51.20;;;;;;5052784;28;20179;-68
2024/01/16 12:21:34;;;;;;;3.25;1.17;;;16.60;51.30;;;;;;5051746;28;20172;-68
2024/01/16 12:24:00;;;;;;;2.10;1.27;;;16.60;51.30;;;;;;5052630;28;20178;-67
2024/01/16 12:26:25;;;;;;;3.53;1.20;;;16.60;51.30;;;;;;5050994;28;20170;-68
2024/01/16 12:28:54;;;;;;;1.45;1.10;;;16.60;51.40;;;;;;5051744;28;20220;-68
2024/01/16 12:31:19;;;;;;;2.30;1.10;;;16.60;51.40;;;;;;5050891;28;20179;-72
2024/01/16 12:33:45;;;;;;;3.22;1.58;;;16.60;51.40;;;;;;5052291;28;20263;-73
2024/01/16 12:36:11;;;;;;;2.10;1.00;;;16.60;51.10;;;;;;5051134;28;20268;-70
2024/01/16 12:38:36;;;;;;;5.00;1.40;;;16.60;51.10;;;;;;5052038;28;20190;-69
2024/01/16 12:41:02;;;;;;;7.15;1.27;;;16.60;51.30;;;;;;5052340;28;20174;-71
2024/01/16 12:43:30;;;;;;;3.33;1.30;;;16.50;51.60;;;;;;5050011;28;20671;-72